createdAt,value
2018-11-12T00:01:20.340Z,11.75
2018-11-12T00:03:48.215Z,11.55
2018-11-12T00:06:15.155Z,11.52
2018-11-12T00:08:42.095Z,11.51
2018-11-12T00:11:09.031Z,11.59
2018-11-12T00:13:35.984Z,11.43
2018-11-12T00:16:02.927Z,11.18
2018-11-12T00:18:29.871Z,11.40
2018-11-12T00:20:56.820Z,11.34
2018-11-12T00:23:23.751Z,11.54
2018-11-12T00:25:50.718Z,11.52
2018-11-12T00:28:17.646Z,11.65
2018-11-12T00:30:44.589Z,11.74
2018-11-12T00:33:12.464Z,11.83
2018-11-12T00:35:39.427Z,11.69
2018-11-12T00:38:06.347Z,11.65
2018-11-12T00:40:33.301Z,11.56
2018-11-12T00:43:00.232Z,11.54
2018-11-12T00:45:27.181Z,11.51
2018-11-12T00:47:54.130Z,11.58
2018-11-12T00:50:21.987Z,11.49
2018-11-12T00:52:48.943Z,11.40
2018-11-12T00:55:16.174Z,11.45
2018-11-12T00:57:43.334Z,11.53
2018-11-12T01:00:13.662Z,11.58
2018-11-12T01:02:42.179Z,11.40
2018-11-12T01:05:10.130Z,11.23
2018-11-12T01:07:37.459Z,11.21
2018-11-12T01:10:06.360Z,11.26
2018-11-12T01:12:33.310Z,11.20
2018-11-12T01:15:00.251Z,11.03
2018-11-12T01:17:27.128Z,11.01
2018-11-12T01:19:54.035Z,11.12
2018-11-12T01:22:20.988Z,11.15
2018-11-12T01:24:47.957Z,11.14
2018-11-12T01:27:14.876Z,10.95
2018-11-12T01:29:41.816Z,10.97
2018-11-12T01:32:08.766Z,11.05
2018-11-12T01:34:35.762Z,11.04
2018-11-12T01:37:02.650Z,10.90
2018-11-12T01:39:29.595Z,10.78
2018-11-12T01:41:56.573Z,10.87
2018-11-12T01:44:23.483Z,11.00
2018-11-12T01:46:50.429Z,10.96
2018-11-12T01:49:17.278Z,10.98
2018-11-12T01:51:44.219Z,11.17
2018-11-12T01:54:11.171Z,11.36
2018-11-12T01:56:38.099Z,11.34
2018-11-12T01:59:05.050Z,11.85
2018-11-12T02:01:32.013Z,11.55
2018-11-12T02:03:58.987Z,11.61
2018-11-12T02:06:25.895Z,11.37
2018-11-12T02:08:52.917Z,11.39
2018-11-12T02:11:19.783Z,11.32
2018-11-12T02:13:46.771Z,11.33
2018-11-12T02:16:13.655Z,11.38
2018-11-12T02:18:40.603Z,11.41
2018-11-12T02:21:07.999Z,11.50
2018-11-12T02:23:35.034Z,11.30
2018-11-12T02:26:01.959Z,11.76
2018-11-12T02:28:28.902Z,11.42
2018-11-12T02:30:55.830Z,11.32
2018-11-12T02:33:22.728Z,11.29
2018-11-12T02:35:49.624Z,11.43
2018-11-12T02:38:16.580Z,11.45
2018-11-12T02:40:45.463Z,11.53
2018-11-12T02:43:12.415Z,11.59
2018-11-12T02:45:39.462Z,11.75
2018-11-12T02:48:06.403Z,11.60
2018-11-12T02:50:33.342Z,11.65
2018-11-12T02:53:00.292Z,11.46
2018-11-12T02:55:27.250Z,11.60
2018-11-12T02:57:54.182Z,11.70
2018-11-12T03:00:22.239Z,11.69
2018-11-12T03:02:49.226Z,11.59
2018-11-12T03:05:17.162Z,11.63
2018-11-12T03:07:44.482Z,11.67
2018-11-12T03:10:13.464Z,11.64
2018-11-12T03:12:40.450Z,11.52
2018-11-12T03:15:08.451Z,11.67
2018-11-12T03:17:35.364Z,11.57
2018-11-12T03:20:02.623Z,11.67
2018-11-12T03:22:29.583Z,11.51
2018-11-12T03:24:56.514Z,11.52
2018-11-12T03:27:23.453Z,11.63
2018-11-12T03:29:50.403Z,11.81
2018-11-12T03:32:17.355Z,11.66
2018-11-12T03:34:44.290Z,11.50
2018-11-12T03:37:11.231Z,11.53
2018-11-12T03:39:38.233Z,11.57
2018-11-12T03:42:05.120Z,11.61
2018-11-12T03:44:32.095Z,11.67
2018-11-12T03:46:59.016Z,11.73
2018-11-12T03:49:26.007Z,11.71
2018-11-12T03:51:52.923Z,11.73
2018-11-12T03:54:19.851Z,11.68
2018-11-12T03:56:46.795Z,11.73
2018-11-12T03:59:13.751Z,11.55
2018-11-12T04:01:45.382Z,11.52
2018-11-12T04:04:13.969Z,11.49
2018-11-12T04:06:41.037Z,11.44
2018-11-12T04:09:10.367Z,11.63
2018-11-12T04:11:37.343Z,11.71
2018-11-12T04:14:04.660Z,12.38
2018-11-12T04:16:31.556Z,12.15
2018-11-12T04:18:58.516Z,12.05
2018-11-12T04:21:25.455Z,11.87
2018-11-12T04:23:52.407Z,11.79
2018-11-12T04:26:19.347Z,11.75
2018-11-12T04:28:47.224Z,11.74
2018-11-12T04:31:14.198Z,11.84
2018-11-12T04:33:41.126Z,11.81
2018-11-12T04:36:08.047Z,11.89
2018-11-12T04:38:35.000Z,11.80
2018-11-12T04:41:02.102Z,11.71
2018-11-12T04:43:29.074Z,12.09
2018-11-12T04:45:56.039Z,12.49
2018-11-12T04:48:22.987Z,12.00
2018-11-12T04:50:49.931Z,11.93
2018-11-12T04:53:17.784Z,11.94
2018-11-12T04:55:45.675Z,11.73
2018-11-12T04:58:13.527Z,11.73
2018-11-12T05:00:40.375Z,11.87
2018-11-12T05:03:07.306Z,11.81
2018-11-12T05:05:34.300Z,11.87
2018-11-12T05:08:01.224Z,11.94
2018-11-12T05:10:28.159Z,12.56
2018-11-12T05:12:56.067Z,12.11
2018-11-12T05:15:23.725Z,11.95
2018-11-12T05:17:50.680Z,12.02
2018-11-12T05:20:23.819Z,11.98
2018-11-12T05:22:50.757Z,11.82
2018-11-12T05:25:17.696Z,11.81
2018-11-12T05:27:44.660Z,11.68
2018-11-12T05:30:13.939Z,11.51
2018-11-12T05:32:40.933Z,11.52
2018-11-12T05:35:07.835Z,11.62
2018-11-12T05:37:35.108Z,11.36
2018-11-12T05:40:01.974Z,11.47
2018-11-12T05:42:28.868Z,11.48
2018-11-12T05:44:55.899Z,12.16
2018-11-12T05:47:22.761Z,12.25
2018-11-12T05:49:49.759Z,11.86
2018-11-12T05:52:16.658Z,11.66
2018-11-12T05:54:43.630Z,11.61
2018-11-12T05:57:10.557Z,11.61
2018-11-12T05:59:37.499Z,11.50
2018-11-12T06:02:04.551Z,11.89
2018-11-12T06:04:31.474Z,11.85
2018-11-12T06:06:58.495Z,11.80
2018-11-12T06:09:25.366Z,11.93
2018-11-12T06:11:52.350Z,11.82
2018-11-12T06:14:19.263Z,11.85
2018-11-12T06:16:46.111Z,12.54
2018-11-12T06:19:13.050Z,12.15
2018-11-12T06:21:39.898Z,12.15
2018-11-12T06:24:06.827Z,12.10
2018-11-12T06:26:33.846Z,11.92
2018-11-12T06:29:00.717Z,11.94
2018-11-12T06:31:27.664Z,11.97
2018-11-12T06:33:54.610Z,11.92
2018-11-12T06:36:21.567Z,11.85
2018-11-12T06:38:48.511Z,11.94
2018-11-12T06:41:15.439Z,11.85
2018-11-12T06:43:42.407Z,11.85
2018-11-12T06:46:09.327Z,11.92
2018-11-12T06:48:36.299Z,12.02
2018-11-12T06:51:03.233Z,12.16
2018-11-12T06:53:30.135Z,11.95
2018-11-12T06:55:56.922Z,12.17
2018-11-12T06:58:23.842Z,12.65
2018-11-12T07:00:50.860Z,12.40
2018-11-12T07:03:17.791Z,12.24
2018-11-12T07:05:44.694Z,12.22
2018-11-12T07:08:11.637Z,12.11
2018-11-12T07:10:39.546Z,12.09
2018-11-12T07:13:06.463Z,12.09
2018-11-12T07:15:33.319Z,12.14
2018-11-12T07:18:00.227Z,12.21
2018-11-12T07:20:27.835Z,12.38
2018-11-12T07:22:54.743Z,12.26
2018-11-12T07:25:23.478Z,12.37
2018-11-12T07:27:51.194Z,12.56
2018-11-12T07:30:21.380Z,12.50
2018-11-12T07:32:49.080Z,12.48
2018-11-12T07:35:16.728Z,12.64
2018-11-12T07:37:44.736Z,12.55
2018-11-12T07:40:12.352Z,13.10
2018-11-12T07:42:39.812Z,12.85
2018-11-12T07:45:09.951Z,12.91
2018-11-12T07:47:36.923Z,12.82
2018-11-12T07:50:05.908Z,12.68
2018-11-12T07:52:32.811Z,13.35
2018-11-12T07:54:59.763Z,13.07
2018-11-12T07:57:26.722Z,13.26
2018-11-12T07:59:53.639Z,13.35
2018-11-12T08:02:21.483Z,13.30
2018-11-12T08:04:48.428Z,13.39
2018-11-12T08:07:16.339Z,13.62
2018-11-12T08:09:43.385Z,13.63
2018-11-12T08:12:10.130Z,13.57
2018-11-12T08:14:37.213Z,13.75
2018-11-12T08:17:04.043Z,13.74
2018-11-12T08:19:30.959Z,13.77
2018-11-12T08:21:57.896Z,13.60
2018-11-12T08:24:24.849Z,13.89
2018-11-12T08:26:51.719Z,13.79
2018-11-12T08:29:18.627Z,13.95
2018-11-12T08:31:45.642Z,14.04
2018-11-12T08:34:12.587Z,14.04
2018-11-12T08:36:39.653Z,14.11
2018-11-12T08:39:06.724Z,14.14
2018-11-12T08:41:33.519Z,13.87
2018-11-12T08:44:00.367Z,14.34
2018-11-12T08:46:27.211Z,14.29
2018-11-12T08:48:54.100Z,14.25
2018-11-12T08:51:21.919Z,14.31
2018-11-12T08:53:48.862Z,14.18
2018-11-12T08:56:15.706Z,14.40
2018-11-12T08:58:42.543Z,14.46
2018-11-12T09:01:09.511Z,14.38
2018-11-12T09:03:36.434Z,14.39
2018-11-12T09:06:03.300Z,14.50
2018-11-12T09:08:30.145Z,14.39
2018-11-12T09:10:57.062Z,14.71
2018-11-12T09:13:23.914Z,14.58
2018-11-12T09:15:50.959Z,14.58
2018-11-12T09:18:17.738Z,14.78
2018-11-12T09:20:44.643Z,14.65
2018-11-12T09:23:11.491Z,14.74
2018-11-12T09:25:38.434Z,14.62
2018-11-12T09:28:05.370Z,14.75
2018-11-12T09:30:32.227Z,14.95
2018-11-12T09:32:59.154Z,14.87
2018-11-12T09:35:29.082Z,14.89
2018-11-12T09:37:56.716Z,14.95
2018-11-12T09:40:25.890Z,15.07
2018-11-12T09:42:52.791Z,15.11
2018-11-12T09:45:19.639Z,15.15
2018-11-12T09:47:46.822Z,15.05
2018-11-12T09:50:14.840Z,15.43
2018-11-12T09:52:43.114Z,15.50
2018-11-12T09:55:10.920Z,15.50
2018-11-12T09:57:38.742Z,15.64
2018-11-12T10:00:07.796Z,15.70
2018-11-12T10:02:35.449Z,15.84
2018-11-12T10:05:03.038Z,15.71
2018-11-12T10:07:30.035Z,15.95
2018-11-12T10:09:57.101Z,15.94
2018-11-12T10:12:23.618Z,15.97
2018-11-12T10:14:51.038Z,16.03
2018-11-12T10:17:20.335Z,15.90
2018-11-12T10:19:42.761Z,15.73
2018-11-12T10:22:09.647Z,15.58
2018-11-12T10:24:37.087Z,15.81
2018-11-12T10:27:04.490Z,15.59
2018-11-12T10:29:31.403Z,15.64
2018-11-12T10:31:58.333Z,15.83
2018-11-12T10:34:25.287Z,15.81
2018-11-12T10:36:52.239Z,15.79
2018-11-12T10:39:19.163Z,15.84
2018-11-12T10:41:47.027Z,15.68
2018-11-12T10:44:13.884Z,15.71
2018-11-12T10:46:40.818Z,15.68
2018-11-12T10:49:07.754Z,15.63
2018-11-12T10:51:34.605Z,15.63
2018-11-12T10:54:01.646Z,15.58
2018-11-12T10:56:28.402Z,15.67
2018-11-12T10:58:55.343Z,15.59
2018-11-12T11:01:28.030Z,15.84
2018-11-12T11:04:00.694Z,15.82
2018-11-12T11:06:27.563Z,15.70
2018-11-12T11:08:54.414Z,15.76
2018-11-12T11:11:21.284Z,15.64
2018-11-12T11:13:48.210Z,15.81
2018-11-12T11:16:15.110Z,15.83
2018-11-12T11:18:41.974Z,15.65
2018-11-12T11:21:08.953Z,15.80
2018-11-12T11:23:35.862Z,15.71
2018-11-12T11:26:02.783Z,15.73
2018-11-12T11:28:29.638Z,15.81
2018-11-12T11:30:56.527Z,15.73
2018-11-12T11:33:23.422Z,15.83
2018-11-12T11:35:50.367Z,15.70
2018-11-12T11:38:17.302Z,15.81
2018-11-12T11:40:44.219Z,15.69
2018-11-12T11:43:10.998Z,15.74
2018-11-12T11:45:37.942Z,15.63
2018-11-12T11:48:05.097Z,15.64
2018-11-12T11:50:31.888Z,15.74
2018-11-12T11:52:58.786Z,15.63
2018-11-12T11:55:25.710Z,15.61
2018-11-12T11:57:53.786Z,15.67
2018-11-12T12:00:28.598Z,15.73
2018-11-12T12:02:56.559Z,16.12
2018-11-12T12:05:23.839Z,15.81
2018-11-12T12:07:51.505Z,15.70
2018-11-12T12:10:18.487Z,15.76
2018-11-12T12:12:46.409Z,15.82
2018-11-12T12:15:15.439Z,15.75
2018-11-12T12:17:42.356Z,15.80
2018-11-12T12:20:11.434Z,15.81
2018-11-12T12:22:38.426Z,15.73
2018-11-12T12:25:06.258Z,15.77
2018-11-12T12:27:33.123Z,15.86
2018-11-12T12:30:00.064Z,16.32
2018-11-12T12:32:26.997Z,15.99
2018-11-12T12:34:53.939Z,16.00
2018-11-12T12:37:20.779Z,15.92
2018-11-12T12:39:47.749Z,15.93
2018-11-12T12:42:14.676Z,15.89
2018-11-12T12:44:41.622Z,15.86
2018-11-12T12:47:08.579Z,15.92
2018-11-12T12:49:35.678Z,15.95
2018-11-12T12:52:02.956Z,15.94
2018-11-12T12:54:29.823Z,16.01
2018-11-12T12:56:56.750Z,16.01
2018-11-12T12:59:23.723Z,15.96
2018-11-12T13:01:50.946Z,16.00
2018-11-12T13:04:17.683Z,15.90
2018-11-12T13:06:44.620Z,15.89
2018-11-12T13:09:11.467Z,15.87
2018-11-12T13:11:38.551Z,15.87
2018-11-12T13:14:05.830Z,15.87
2018-11-12T13:16:32.623Z,15.96
2018-11-12T13:18:59.558Z,15.82
2018-11-12T13:21:26.533Z,15.81
2018-11-12T13:23:53.454Z,15.88
2018-11-12T13:26:20.473Z,15.81
2018-11-12T13:28:47.254Z,15.78
2018-11-12T13:31:14.180Z,15.81
2018-11-12T13:33:41.123Z,15.72
2018-11-12T13:36:08.071Z,15.78
2018-11-12T13:38:35.018Z,15.71
2018-11-12T13:41:01.904Z,15.77
2018-11-12T13:43:28.760Z,15.86
2018-11-12T13:45:55.659Z,15.81
2018-11-12T13:48:22.590Z,16.43
2018-11-12T13:50:49.534Z,16.02
2018-11-12T13:53:16.476Z,15.94
2018-11-12T13:55:43.503Z,15.97
2018-11-12T13:58:10.380Z,15.97
2018-11-12T14:00:37.379Z,15.96
2018-11-12T14:03:04.427Z,16.03
2018-11-12T14:05:31.313Z,16.05
2018-11-12T14:07:58.254Z,16.20
2018-11-12T14:10:26.734Z,16.05
2018-11-12T14:12:54.803Z,16.11
2018-11-12T14:15:22.359Z,16.19
2018-11-12T14:17:49.663Z,16.18
2018-11-12T14:20:16.613Z,16.19
2018-11-12T14:22:43.519Z,16.16
2018-11-12T14:25:11.932Z,16.31
2018-11-12T14:27:38.852Z,16.00
2018-11-12T14:30:07.247Z,16.08
2018-11-12T14:32:37.424Z,16.07
2018-11-12T14:35:17.878Z,15.94
2018-11-12T14:37:54.072Z,15.83
2018-11-12T14:40:22.089Z,16.03
2018-11-12T14:42:56.228Z,16.20
2018-11-12T14:45:27.615Z,16.34
2018-11-12T14:48:02.981Z,16.56
2018-11-12T14:53:28.332Z,16.48
2018-11-12T14:55:55.267Z,16.37
2018-11-12T14:58:23.124Z,16.31
2018-11-12T15:00:49.983Z,16.23
2018-11-12T15:03:17.943Z,15.97
2018-11-12T15:05:44.913Z,15.79
2018-11-12T15:08:11.847Z,15.91
2018-11-12T15:10:38.780Z,15.66
2018-11-12T15:13:05.712Z,15.86
2018-11-12T15:15:32.659Z,15.75
2018-11-12T15:18:00.463Z,15.75
2018-11-12T15:20:27.362Z,15.67
2018-11-12T15:22:54.357Z,16.23
2018-11-12T15:25:22.583Z,15.64
2018-11-12T15:27:49.531Z,15.54
2018-11-12T15:30:19.502Z,15.44
2018-11-12T15:32:47.449Z,15.38
2018-11-12T15:35:14.967Z,16.08
2018-11-12T15:37:42.727Z,15.55
2018-11-12T15:40:09.888Z,15.38
2018-11-12T15:42:37.499Z,15.89
2018-11-12T15:45:06.415Z,15.24
2018-11-12T15:47:33.312Z,15.63
2018-11-12T15:50:00.230Z,14.95
2018-11-12T15:52:27.132Z,14.78
2018-11-12T15:54:54.083Z,14.60
2018-11-12T15:57:21.081Z,14.52
2018-11-12T15:59:47.926Z,14.51
2018-11-12T16:02:15.827Z,14.43
2018-11-12T16:04:42.715Z,14.33
2018-11-12T16:07:09.680Z,14.44
2018-11-12T16:09:36.560Z,15.05
2018-11-12T16:12:03.768Z,14.43
2018-11-12T16:14:30.594Z,15.11
2018-11-12T16:16:57.555Z,14.46
2018-11-12T16:19:24.607Z,14.28
2018-11-12T16:21:51.455Z,14.24
2018-11-12T16:24:18.375Z,13.89
2018-11-12T16:26:45.389Z,13.79
2018-11-12T16:29:12.192Z,13.76
2018-11-12T16:31:39.115Z,13.74
2018-11-12T16:34:06.067Z,13.62
2018-11-12T16:36:33.057Z,13.43
2018-11-12T16:38:59.965Z,13.43
2018-11-12T16:41:27.155Z,13.45
2018-11-12T16:43:56.091Z,13.55
2018-11-12T16:46:23.175Z,13.48
2018-11-12T16:48:50.088Z,13.35
2018-11-12T16:51:17.958Z,13.33
2018-11-12T16:53:45.768Z,13.34
2018-11-12T16:56:16.708Z,13.16
2018-11-12T16:58:43.594Z,13.89
2018-11-12T17:01:10.513Z,13.99
2018-11-12T17:03:37.383Z,13.43
2018-11-12T17:06:04.284Z,13.29
2018-11-12T17:08:31.182Z,13.30
2018-11-12T17:10:58.075Z,13.49
2018-11-12T17:13:24.936Z,12.95
2018-11-12T17:15:51.833Z,12.33
2018-11-12T17:18:18.756Z,12.54
2018-11-12T17:20:45.644Z,12.76
2018-11-12T17:23:12.656Z,12.74
2018-11-12T17:25:39.363Z,12.69
2018-11-12T17:28:06.264Z,12.77
2018-11-12T17:30:33.175Z,12.84
2018-11-12T17:33:00.129Z,13.08
2018-11-12T17:35:27.119Z,13.16
2018-11-12T17:37:54.014Z,13.23
2018-11-12T17:40:23.700Z,13.20
2018-11-12T17:42:51.567Z,13.36
2018-11-12T17:45:20.762Z,13.26
2018-11-12T17:47:48.946Z,13.43
2018-11-12T17:50:15.902Z,13.43
2018-11-12T17:52:42.747Z,13.47
2018-11-12T17:55:10.333Z,13.53
2018-11-12T17:57:37.403Z,13.42
2018-11-12T18:00:08.913Z,13.49
2018-11-12T18:02:35.860Z,13.90
2018-11-12T18:05:03.431Z,13.38
2018-11-12T18:07:30.518Z,13.22
2018-11-12T18:09:57.301Z,13.06
2018-11-12T18:12:24.236Z,13.13
2018-11-12T18:14:51.120Z,13.04
2018-11-12T18:17:17.971Z,13.06
2018-11-12T18:19:45.914Z,13.11
2018-11-12T18:22:12.782Z,12.78
2018-11-12T18:24:39.656Z,12.87
2018-11-12T18:27:06.545Z,13.42
2018-11-12T18:29:33.403Z,12.93
2018-11-12T18:32:00.264Z,12.85
2018-11-12T18:34:27.154Z,13.03
2018-11-12T18:36:53.994Z,12.96
2018-11-12T18:39:20.843Z,12.66
2018-11-12T18:41:47.707Z,12.67
2018-11-12T18:44:14.550Z,12.46
2018-11-12T18:46:41.503Z,12.42
2018-11-12T18:49:08.423Z,13.05
2018-11-12T18:51:35.350Z,13.11
2018-11-12T18:54:02.265Z,12.75
2018-11-12T18:56:29.202Z,12.46
2018-11-12T18:58:56.128Z,12.52
2018-11-12T19:01:23.059Z,12.49
2018-11-12T19:03:49.996Z,12.63
2018-11-12T19:06:16.976Z,12.65
2018-11-12T19:08:43.922Z,12.82
2018-11-12T19:11:10.860Z,12.78
2018-11-12T19:13:37.854Z,12.48
2018-11-12T19:16:05.550Z,12.44
2018-11-12T19:18:32.484Z,12.44
2018-11-12T19:20:59.391Z,12.28
2018-11-12T19:23:26.323Z,12.23
2018-11-12T19:25:53.238Z,12.26
2018-11-12T19:28:20.173Z,12.33
2018-11-12T19:30:47.114Z,12.09
2018-11-12T19:33:14.023Z,12.09
2018-11-12T19:35:40.938Z,11.89
2018-11-12T19:38:07.889Z,11.85
2018-11-12T19:40:35.003Z,11.85
2018-11-12T19:43:01.840Z,11.84
2018-11-12T19:45:28.735Z,11.81
2018-11-12T19:47:55.660Z,11.87
2018-11-12T19:50:23.797Z,11.70
2018-11-12T19:52:53.185Z,11.63
2018-11-12T19:55:20.112Z,11.47
2018-11-12T19:57:47.481Z,11.41
2018-11-12T20:00:16.989Z,11.32
2018-11-12T20:02:45.119Z,11.21
2018-11-12T20:05:12.131Z,11.18
2018-11-12T20:07:39.709Z,11.93
2018-11-12T20:10:09.325Z,11.46
2018-11-12T20:12:36.291Z,11.63
2018-11-12T20:15:03.283Z,11.72
2018-11-12T20:17:30.187Z,11.79
2018-11-12T20:19:57.108Z,11.69
2018-11-12T20:22:24.058Z,11.88
2018-11-12T20:24:51.184Z,11.82
2018-11-12T20:27:18.378Z,11.69
2018-11-12T20:29:45.290Z,11.42
2018-11-12T20:32:12.241Z,11.26
2018-11-12T20:34:39.175Z,11.03
2018-11-12T20:37:06.086Z,10.87
2018-11-12T20:39:33.004Z,11.14
2018-11-12T20:41:59.925Z,11.11
2018-11-12T20:44:26.859Z,11.08
2018-11-12T20:46:53.759Z,11.12
2018-11-12T20:49:20.669Z,11.30
2018-11-12T20:51:47.660Z,11.43
2018-11-12T20:54:14.620Z,11.26
2018-11-12T20:56:41.536Z,11.37
2018-11-12T20:59:08.468Z,11.41
2018-11-12T21:01:35.403Z,11.65
2018-11-12T21:04:02.324Z,11.58
2018-11-12T21:06:29.269Z,11.35
2018-11-12T21:08:56.201Z,11.46
2018-11-12T21:11:23.167Z,11.27
2018-11-12T21:13:50.081Z,11.32
2018-11-12T21:16:17.007Z,11.84
2018-11-12T21:18:43.929Z,12.24
2018-11-12T21:21:10.861Z,11.48
2018-11-12T21:23:37.812Z,11.69
2018-11-12T21:26:04.697Z,11.61
2018-11-12T21:28:31.646Z,11.79
2018-11-12T21:30:58.586Z,11.75
2018-11-12T21:33:25.493Z,12.36
2018-11-12T21:35:52.397Z,12.02
2018-11-12T21:38:19.330Z,12.16
2018-11-12T21:40:46.259Z,11.93
2018-11-12T21:43:13.268Z,12.12
2018-11-12T21:45:40.108Z,12.81
2018-11-12T21:48:07.033Z,12.25
2018-11-12T21:50:33.975Z,12.13
2018-11-12T21:53:00.873Z,12.16
2018-11-12T21:55:27.821Z,12.30
2018-11-12T21:57:54.746Z,12.43
2018-11-12T22:00:25.696Z,12.15
2018-11-12T22:02:56.424Z,12.08
2018-11-12T22:05:23.567Z,12.20
2018-11-12T22:07:50.495Z,12.08
2018-11-12T22:10:17.875Z,12.14
2018-11-12T22:12:46.041Z,12.16
2018-11-12T22:15:13.002Z,12.17
2018-11-12T22:17:39.913Z,12.40
2018-11-12T22:20:08.202Z,12.36
2018-11-12T22:22:35.203Z,12.33
2018-11-12T22:25:02.135Z,12.47
2018-11-12T22:27:29.203Z,12.44
2018-11-12T22:29:56.112Z,13.05
2018-11-12T22:32:23.045Z,13.33
2018-11-12T22:34:49.967Z,13.47
2018-11-12T22:37:16.909Z,12.71
2018-11-12T22:39:43.837Z,12.45
2018-11-12T22:42:10.771Z,12.56
2018-11-12T22:44:37.694Z,12.51
2018-11-12T22:47:04.626Z,12.51
2018-11-12T22:49:31.558Z,12.59
2018-11-12T22:51:58.485Z,12.53
2018-11-12T22:54:25.434Z,12.66
2018-11-12T22:56:52.347Z,12.16
2018-11-12T22:59:19.265Z,12.07
2018-11-12T23:01:46.195Z,12.20
2018-11-12T23:04:13.126Z,12.32
2018-11-12T23:06:40.060Z,12.25
2018-11-12T23:09:14.989Z,12.42
2018-11-12T23:11:41.955Z,12.66
2018-11-12T23:14:08.910Z,12.88
2018-11-12T23:16:35.859Z,12.88
2018-11-12T23:19:02.775Z,12.72
2018-11-12T23:21:29.702Z,12.91
2018-11-12T23:23:56.621Z,12.69
2018-11-12T23:26:23.527Z,12.71
2018-11-12T23:28:50.464Z,12.80
2018-11-12T23:31:17.389Z,12.59
2018-11-12T23:33:44.313Z,12.82
2018-11-12T23:36:11.261Z,12.83
2018-11-12T23:38:38.217Z,12.24
2018-11-12T23:41:05.242Z,12.26
2018-11-12T23:43:32.153Z,12.19
2018-11-12T23:45:59.097Z,12.13
2018-11-12T23:48:26.021Z,12.30
2018-11-12T23:50:52.929Z,12.23
2018-11-12T23:53:19.843Z,12.42
2018-11-12T23:55:46.762Z,12.36
2018-11-12T23:58:13.689Z,12.30
